Time;durP1;ratioP1;P1;durP2;ratioP2;P2;SDS_P1;SDS_P2;PMS_P1;PMS_P2;Temp;Humidity;BMP_temperature;BMP_pressure;BME280_temperature;BME280_humidity;BME280_pressure;Samples;Min_cycle;Max_cycle;Signal;HPM_P1;HPM_P2
2021/12/11 00:01:19;;;;;;;18.10;15.20;;;-3.40;99.90;;;;;;5016541;28;20445;-76
2021/12/11 00:04:00;;;;;;;20.80;14.97;;;-4.10;99.90;;;;;;5016613;28;20414;-76
2021/12/11 00:06:30;;;;;;;23.77;16.13;;;-4.90;99.90;;;;;;5015752;28;20822;-78
2021/12/11 00:09:00;;;;;;;19.50;13.83;;;-6.20;99.90;;;;;;5016851;28;20407;-76
2021/12/11 00:11:31;;;;;;;22.67;15.43;;;-6.30;99.90;;;;;;5016711;28;20399;-75
2021/12/11 00:13:58;;;;;;;21.70;15.47;;;-4.60;99.90;;;;;;5016754;28;20454;-75
2021/12/11 00:16:27;;;;;;;19.87;14.60;;;-4.60;99.90;;;;;;5016548;28;20402;-76
2021/12/11 00:19:01;;;;;;;24.13;16.23;;;-6.10;99.90;;;;;;5015822;28;20430;-78
2021/12/11 00:21:28;;;;;;;19.23;13.37;;;-4.30;99.90;;;;;;5016753;28;20438;-75
2021/12/11 00:24:05;;;;;;;20.00;15.13;;;-3.70;99.90;;;;;;5016297;28;20414;-76
2021/12/11 00:26:35;;;;;;;22.77;16.40;;;-6.10;99.90;;;;;;5031996;28;20881;-75
2021/12/11 00:29:02;;;;;;;22.13;15.77;;;-6.00;99.90;;;;;;5031800;28;20407;-76
2021/12/11 00:31:31;;;;;;;20.83;15.60;;;-5.80;99.90;;;;;;5015475;28;20473;-76
2021/12/11 00:33:57;;;;;;;19.97;15.40;;;-4.20;99.90;;;;;;5015922;28;20820;-76
2021/12/11 00:36:31;;;;;;;21.40;15.87;;;-3.90;99.90;;;;;;5015243;28;20427;-79
2021/12/11 00:39:04;;;;;;;20.80;15.03;;;-4.40;99.90;;;;;;5016281;28;20415;-78
2021/12/11 00:41:32;;;;;;;22.53;14.53;;;-5.70;99.90;;;;;;5015738;28;20752;-80
2021/12/11 00:44:01;;;;;;;19.57;15.43;;;-5.80;99.90;;;;;;5015142;28;20415;-77
2021/12/11 00:46:29;;;;;;;21.57;15.07;;;-5.50;99.90;;;;;;5031498;28;20422;-77
2021/12/11 00:49:14;;;;;;;21.87;15.37;;;-2.60;99.90;;;;;;5014728;28;20434;-78
2021/12/11 00:51:41;;;;;;;16.13;13.47;;;-5.20;99.90;;;;;;5016221;28;20407;-78
2021/12/11 00:54:07;;;;;;;17.77;13.77;;;-4.70;99.90;;;;;;5031152;28;20455;-75
2021/12/11 00:56:39;;;;;;;18.03;13.63;;;-5.00;99.90;;;;;;5015106;28;20417;-78
2021/12/11 00:59:08;;;;;;;18.73;13.90;;;-4.80;99.90;;;;;;5015969;28;20414;-79
2021/12/11 01:01:43;;;;;;;20.73;13.73;;;-5.00;99.90;;;;;;5015979;28;20425;-79
2021/12/11 01:04:13;;;;;;;15.87;12.60;;;-4.70;99.90;;;;;;5015835;28;20418;-78
2021/12/11 01:06:48;;;;;;;17.30;12.90;;;-4.30;99.90;;;;;;5014979;28;20415;-79
2021/12/11 01:09:22;;;;;;;18.30;13.90;;;-5.60;99.90;;;;;;5031266;28;20736;-80
2021/12/11 01:11:51;;;;;;;12.53;11.23;;;-5.40;99.90;;;;;;5015762;28;20713;-75
2021/12/11 01:14:36;;;;;;;12.93;11.40;;;-4.00;99.90;;;;;;5014614;28;20597;-77
2021/12/11 01:17:08;;;;;;;19.60;13.47;;;-3.70;99.90;;;;;;5015634;28;20402;-78
2021/12/11 01:19:39;;;;;;;16.03;12.43;;;-5.30;99.90;;;;;;5031232;28;20418;-78
2021/12/11 01:22:21;;;;;;;19.47;14.27;;;-5.20;99.90;;;;;;5015902;28;20395;-78
2021/12/11 01:24:52;;;;;;;17.20;12.77;;;-5.20;99.90;;;;;;5014901;28;20425;-77
2021/12/11 01:27:23;;;;;;;14.80;12.70;;;-3.20;99.90;;;;;;5015628;28;20717;-75
2021/12/11 01:29:55;;;;;;;17.57;12.57;;;-3.00;99.90;;;;;;5017575;28;20957;-80
2021/12/11 01:32:25;;;;;;;15.47;12.37;;;-4.80;99.90;;;;;;5018524;28;20437;-80
2021/12/11 01:34:52;;;;;;;16.17;11.83;;;-4.20;99.90;;;;;;5019479;28;20450;-78
2021/12/11 01:37:19;;;;;;;16.23;12.03;;;-3.00;99.90;;;;;;5019714;28;20419;-76
2021/12/11 01:39:48;;;;;;;15.80;12.67;;;-4.70;99.90;;;;;;5019521;28;20410;-79
2021/12/11 01:42:26;;;;;;;14.63;11.53;;;-4.30;99.90;;;;;;5035041;28;20548;-76
2021/12/11 01:44:55;;;;;;;14.43;10.83;;;-5.30;99.90;;;;;;5019226;28;20403;-78
2021/12/11 01:47:36;;;;;;;15.23;11.13;;;-5.40;99.90;;;;;;5018330;28;20417;-77
2021/12/11 01:50:14;;;;;;;12.47;10.63;;;-5.00;99.90;;;;;;5019324;28;20411;-77
2021/12/11 01:52:53;;;;;;;12.67;10.17;;;-5.40;99.90;;;;;;5018326;28;20402;-77
2021/12/11 01:55:26;;;;;;;12.67;10.20;;;-5.00;99.90;;;;;;5019093;28;20446;-75
2021/12/11 01:57:54;;;;;;;11.87;10.57;;;-2.80;99.90;;;;;;5019307;28;20395;-82
2021/12/11 02:00:30;;;;;;;16.10;11.37;;;-4.30;99.90;;;;;;5017717;28;20877;-79
2021/12/11 02:02:59;;;;;;;17.03;14.03;;;-5.10;99.90;;;;;;5034454;28;20648;-75
2021/12/11 02:05:28;;;;;;;12.87;10.97;;;-3.60;99.90;;;;;;5019037;28;20438;-80
2021/12/11 02:07:57;;;;;;;13.03;10.70;;;-5.60;99.90;;;;;;5019133;28;20402;-78
2021/12/11 02:10:28;;;;;;;18.37;12.97;;;-3.20;99.90;;;;;;5018935;28;20418;-78
2021/12/11 02:12:58;;;;;;;15.93;10.77;;;-3.10;99.90;;;;;;5018975;28;20403;-81
2021/12/11 02:15:33;;;;;;;14.23;11.23;;;-3.20;99.90;;;;;;5017444;28;20458;-79
2021/12/11 02:18:13;;;;;;;13.37;11.43;;;-3.30;99.90;;;;;;5018912;28;20398;-81
2021/12/11 02:20:56;;;;;;;14.60;11.83;;;-5.10;99.90;;;;;;5017826;28;20410;-81
2021/12/11 02:23:22;;;;;;;15.63;10.03;;;-5.00;99.90;;;;;;5017663;28;20409;-79
2021/12/11 02:25:51;;;;;;;14.10;10.17;;;-3.70;99.90;;;;;;5018545;28;20414;-78
2021/12/11 02:28:40;;;;;;;14.40;11.60;;;-3.70;99.90;;;;;;5017351;28;20726;-80
2021/12/11 02:31:19;;;;;;;18.27;12.37;;;-4.20;99.90;;;;;;5021262;28;20514;-80
2021/12/11 02:33:56;;;;;;;9.60;8.53;;;-4.90;99.90;;;;;;5018434;28;20418;-77
2021/12/11 02:36:24;;;;;;;10.27;8.90;;;-4.90;99.90;;;;;;5017422;28;20478;-82
2021/12/11 02:38:59;;;;;;;10.87;7.77;;;-5.30;99.90;;;;;;5034028;28;20407;-81
2021/12/11 02:41:29;;;;;;;6.33;5.30;;;-5.70;99.90;;;;;;5016328;28;20417;-81
2021/12/11 02:44:01;;;;;;;6.80;4.03;;;-4.30;99.90;;;;;;5017220;28;20438;-81
2021/12/11 02:46:51;;;;;;;8.07;4.13;;;-3.40;99.90;;;;;;5018323;28;20461;-79
2021/12/11 02:49:43;;;;;;;8.47;3.70;;;-5.40;99.90;;;;;;5017520;28;20480;-80
2021/12/11 02:52:24;;;;;;;7.73;2.67;;;-5.20;99.90;;;;;;5018348;28;20399;-80
2021/12/11 02:55:06;;;;;;;13.53;2.77;;;-5.60;99.90;;;;;;5017280;28;20548;-82
2021/12/11 02:57:37;;;;;;;3.20;2.00;;;-4.90;99.90;;;;;;5017946;28;20399;-82
2021/12/11 03:00:26;;;;;;;5.03;2.10;;;-3.60;99.90;;;;;;5018103;28;20406;-82
2021/12/11 03:03:05;;;;;;;5.60;1.90;;;-4.60;99.90;;;;;;5018077;28;20490;-82
2021/12/11 03:06:08;;;;;;;9.27;1.43;;;-2.10;99.90;;;;;;5018093;28;20826;-84
2021/12/11 03:08:35;;;;;;;7.97;2.97;;;-5.00;99.90;;;;;;5018501;28;20498;-89
2021/12/11 03:11:06;;;;;;;6.40;1.67;;;-4.70;99.90;;;;;;5018206;28;20404;-84
2021/12/11 03:13:34;;;;;;;8.40;1.77;;;-3.20;99.90;;;;;;5017898;28;20407;-85
2021/12/11 03:16:01;;;;;;;14.23;3.50;;;-5.20;99.90;;;;;;5017846;28;20458;-81
2021/12/11 03:18:28;;;;;;;2.57;1.97;;;-3.00;99.90;;;;;;5033528;28;20414;-82
2021/12/11 03:20:54;;;;;;;8.57;4.10;;;-3.70;99.90;;;;;;5017657;28;20388;-84
2021/12/11 03:23:20;;;;;;;15.90;3.83;;;-3.20;99.90;;;;;;5016812;28;20403;-85
2021/12/11 03:25:47;;;;;;;8.83;3.00;;;-4.40;99.90;;;;;;5017672;28;20514;-83
2021/12/11 03:28:15;;;;;;;14.00;3.57;;;-2.70;99.90;;;;;;5017344;28;20407;-82
2021/12/11 03:30:50;;;;;;;8.53;3.07;;;-3.90;99.90;;;;;;5017354;28;20411;-84
2021/12/11 03:33:18;;;;;;;10.97;3.97;;;-4.40;99.90;;;;;;5017640;28;20840;-85
2021/12/11 03:35:47;;;;;;;11.63;5.27;;;-3.10;99.90;;;;;;5017440;28;20451;-83
2021/12/11 03:38:14;;;;;;;9.13;3.93;;;-3.20;99.90;;;;;;5017688;28;20400;-84
2021/12/11 03:40:41;;;;;;;9.40;3.50;;;-5.00;99.90;;;;;;5016488;28;20407;-82
2021/12/11 03:43:10;;;;;;;9.60;3.93;;;-5.00;99.90;;;;;;5016893;28;20768;-84
2021/12/11 03:45:38;;;;;;;17.17;6.10;;;-4.80;99.90;;;;;;5016267;28;20413;-81
2021/12/11 03:48:14;;;;;;;21.53;5.63;;;-2.90;99.90;;;;;;5017001;28;20450;-83
2021/12/11 03:50:40;;;;;;;16.43;4.73;;;-4.80;99.90;;;;;;5032656;28;20414;-83
2021/12/11 03:53:08;;;;;;;21.07;6.20;;;-4.30;99.90;;;;;;5015881;28;20470;-82
2021/12/11 03:55:39;;;;;;;14.63;5.97;;;-4.10;99.90;;;;;;5015601;28;20802;-82
2021/12/11 03:58:08;;;;;;;18.37;5.33;;;-4.10;99.90;;;;;;5016113;28;20433;-81
2021/12/11 04:00:49;;;;;;;11.37;5.20;;;-2.50;99.90;;;;;;5016960;28;20425;-81
2021/12/11 04:03:17;;;;;;;13.17;5.03;;;-3.20;99.90;;;;;;5015752;28;20785;-79
2021/12/11 04:05:45;;;;;;;14.63;5.17;;;-2.60;99.90;;;;;;5017005;28;20839;-79
2021/12/11 04:08:15;;;;;;;8.57;4.23;;;-4.40;99.90;;;;;;5016836;28;20818;-78
2021/12/11 04:10:41;;;;;;;15.93;4.70;;;-3.80;99.90;;;;;;5016674;28;20518;-77
2021/12/11 04:13:09;;;;;;;16.77;5.27;;;-2.20;99.90;;;;;;5016724;28;20491;-79
2021/12/11 04:15:37;;;;;;;13.50;5.17;;;-4.10;99.90;;;;;;5015721;28;20931;-80
2021/12/11 04:18:04;;;;;;;11.07;4.17;;;-3.80;99.90;;;;;;5016561;28;20397;-80
2021/12/11 04:20:33;;;;;;;17.33;6.13;;;-4.10;99.90;;;;;;5016116;28;20408;-80
2021/12/11 04:22:59;;;;;;;15.07;4.70;;;-4.20;99.90;;;;;;5015577;28;20418;-77
2021/12/11 04:25:27;;;;;;;12.00;3.90;;;-4.50;99.90;;;;;;5016523;28;20403;-78
2021/12/11 04:27:55;;;;;;;9.63;4.73;;;-4.30;99.90;;;;;;5015477;28;20192;-81
2021/12/11 04:30:23;;;;;;;12.53;4.60;;;-2.30;99.90;;;;;;5015376;28;20413;-78
2021/12/11 04:32:51;;;;;;;20.63;5.43;;;-5.00;99.90;;;;;;5016483;28;20427;-79
2021/12/11 04:35:18;;;;;;;11.10;3.20;;;-5.00;99.90;;;;;;5016486;28;20748;-81
2021/12/11 04:37:45;;;;;;;15.30;3.03;;;-4.60;99.90;;;;;;5015253;28;20811;-80
2021/12/11 04:40:34;;;;;;;12.30;3.93;;;-4.40;99.90;;;;;;5015960;28;20406;-80
2021/12/11 04:45:35;;;;;;;12.13;4.37;;;-3.00;99.90;;;;;;5016427;28;20756;-79
2021/12/11 04:48:55;;;;;;;7.63;4.97;;;-4.20;99.90;;;;;;5014939;28;20433;-81
2021/12/11 04:51:00;;;;;;;16.87;6.23;;;-2.30;99.90;;;;;;5015645;28;20919;-80
2021/12/11 04:53:46;;;;;;;18.73;6.63;;;-2.20;99.90;;;;;;5014780;28;20452;-80
2021/12/11 05:02:07;;;;;;;27.47;8.47;;;-2.90;99.90;;;;;;5016184;28;20413;-80
2021/12/11 05:07:32;;;;;;;23.13;8.43;;;-3.00;99.90;;;;;;5016044;28;20849;-80
2021/12/11 05:10:16;;;;;;;22.27;8.00;;;-2.70;99.90;;;;;;5015480;28;20394;-79
2021/12/11 05:12:45;;;;;;;17.50;7.30;;;-4.70;99.90;;;;;;5014774;28;20417;-80
2021/12/11 05:15:19;;;;;;;16.20;6.20;;;-4.50;99.90;;;;;;5015832;28;20460;-82
2021/12/11 05:17:45;;;;;;;16.63;6.20;;;-4.40;99.90;;;;;;5014831;28;20418;-77
2021/12/11 05:20:14;;;;;;;23.00;7.10;;;-4.50;99.90;;;;;;5031206;28;20868;-80
2021/12/11 05:22:40;;;;;;;17.13;6.27;;;-4.80;99.90;;;;;;5015609;28;20840;-77
2021/12/11 05:25:08;;;;;;;14.33;5.73;;;-3.30;99.90;;;;;;5015049;28;20855;-78
2021/12/11 05:27:34;;;;;;;11.27;5.60;;;-4.90;99.90;;;;;;5014797;28;20414;-76
2021/12/11 05:30:01;;;;;;;18.67;6.63;;;-4.90;99.90;;;;;;5015741;28;20404;-77
2021/12/11 05:32:27;;;;;;;16.40;6.03;;;-5.10;99.90;;;;;;5014974;28;20451;-78
2021/12/11 05:34:54;;;;;;;16.70;5.90;;;-3.50;99.90;;;;;;5015642;28;20453;-79
2021/12/11 05:37:20;;;;;;;21.03;5.13;;;-4.80;99.90;;;;;;5015455;28;20481;-77
2021/12/11 05:39:47;;;;;;;19.50;5.53;;;-3.00;99.90;;;;;;5014512;28;20694;-79
2021/12/11 05:42:13;;;;;;;16.03;4.00;;;-4.90;99.90;;;;;;5015756;28;20428;-78
2021/12/11 05:44:40;;;;;;;14.37;4.57;;;-3.60;99.90;;;;;;5014603;28;20413;-76
2021/12/11 05:47:06;;;;;;;11.53;3.10;;;-4.70;99.90;;;;;;5015724;28;20492;-77
2021/12/11 05:49:33;;;;;;;9.80;3.70;;;-3.70;99.90;;;;;;5015569;28;20515;-78
2021/12/11 05:52:03;;;;;;;15.17;5.20;;;-5.20;99.90;;;;;;5015279;28;20167;-78
2021/12/11 05:54:29;;;;;;;9.37;4.03;;;-5.00;99.90;;;;;;5014394;28;20460;-77
2021/12/11 05:57:02;;;;;;;14.57;3.73;;;-4.70;99.90;;;;;;5015414;28;20393;-77
2021/12/11 05:59:29;;;;;;;10.23;3.57;;;-4.50;99.90;;;;;;5015353;28;20401;-78
2021/12/11 06:02:27;;;;;;;17.10;3.93;;;-4.40;99.90;;;;;;5015798;28;20463;-78
2021/12/11 06:04:56;;;;;;;13.07;3.63;;;-3.20;99.90;;;;;;5018528;28;20475;-79
2021/12/11 06:07:25;;;;;;;23.47;7.17;;;-3.30;99.90;;;;;;5015344;28;20409;-79
2021/12/11 06:09:59;;;;;;;9.60;3.77;;;-4.30;99.90;;;;;;5015332;28;20408;-77
2021/12/11 06:12:26;;;;;;;19.73;4.50;;;-4.80;99.90;;;;;;5015507;28;20714;-75
2021/12/11 06:14:53;;;;;;;16.37;4.20;;;-3.90;99.90;;;;;;5016615;28;21058;-77
2021/12/11 06:17:24;;;;;;;14.17;3.87;;;-4.80;99.90;;;;;;5018887;28;20394;-78
2021/12/11 06:19:53;;;;;;;25.77;4.27;;;-2.80;99.90;;;;;;5018844;28;20693;-77
2021/12/11 06:22:21;;;;;;;16.57;4.80;;;-2.70;99.90;;;;;;5017505;28;20463;-76
2021/12/11 06:24:47;;;;;;;22.70;6.07;;;-4.20;99.90;;;;;;5018820;28;20407;-78
2021/12/11 06:27:13;;;;;;;13.67;4.23;;;-3.30;99.90;;;;;;5018725;28;20865;-77
2021/12/11 06:29:39;;;;;;;10.27;3.53;;;-3.90;99.90;;;;;;5018615;28;20405;-78
2021/12/11 06:32:06;;;;;;;9.40;3.70;;;-3.30;99.90;;;;;;5018650;28;20512;-75
2021/12/11 06:34:34;;;;;;;13.50;4.30;;;-4.10;99.90;;;;;;5018568;28;20207;-78
2021/12/11 06:37:02;;;;;;;17.43;3.63;;;-4.30;99.90;;;;;;5018111;28;20881;-81
2021/12/11 06:39:28;;;;;;;21.53;4.57;;;-4.00;99.90;;;;;;5018667;28;20403;-79
2021/12/11 06:41:59;;;;;;;13.63;5.13;;;-4.10;99.90;;;;;;5018490;28;20397;-81
2021/12/11 06:44:28;;;;;;;12.97;3.37;;;-3.70;99.90;;;;;;5018488;28;20182;-78
2021/12/11 06:46:59;;;;;;;10.17;3.67;;;-4.60;99.90;;;;;;5018358;28;20403;-79
2021/12/11 06:49:28;;;;;;;11.47;3.83;;;-3.10;99.90;;;;;;5018030;28;20454;-77
2021/12/11 06:51:54;;;;;;;16.93;3.97;;;-3.10;99.90;;;;;;5033913;28;20406;-76
2021/12/11 06:54:21;;;;;;;14.93;3.50;;;-3.50;99.90;;;;;;5018342;28;20445;-76
2021/12/11 06:56:47;;;;;;;17.73;6.50;;;-2.60;99.90;;;;;;5017256;28;20418;-79
2021/12/11 06:59:13;;;;;;;6.87;3.43;;;-5.20;99.90;;;;;;5018305;28;20395;-75
2021/12/11 07:01:39;;;;;;;12.03;5.00;;;-4.50;99.90;;;;;;5017208;28;20546;-75
2021/12/11 07:04:07;;;;;;;18.63;4.80;;;-3.50;99.90;;;;;;5017687;28;20180;-75
2021/12/11 07:06:35;;;;;;;9.50;3.87;;;-5.10;99.90;;;;;;5016966;28;20928;-75
2021/12/11 07:09:04;;;;;;;9.83;3.60;;;-4.80;99.90;;;;;;5017041;28;20418;-77
2021/12/11 07:11:31;;;;;;;12.07;4.70;;;-3.80;99.90;;;;;;5018000;28;20406;-76
2021/12/11 07:13:58;;;;;;;13.67;4.43;;;-5.70;99.90;;;;;;5017896;28;20414;-75
2021/12/11 07:16:24;;;;;;;14.67;5.30;;;-4.30;99.90;;;;;;5017658;28;20404;-75
2021/12/11 07:18:50;;;;;;;15.83;4.37;;;-4.40;99.90;;;;;;5017994;28;20422;-79
2021/12/11 07:21:16;;;;;;;16.07;5.57;;;-5.30;99.90;;;;;;5017799;28;20744;-76
2021/12/11 07:23:48;;;;;;;17.67;4.90;;;-5.00;99.90;;;;;;5016716;28;20485;-78
2021/12/11 07:26:23;;;;;;;14.33;4.97;;;-4.50;99.90;;;;;;5016066;28;20450;-79
2021/12/11 07:28:52;;;;;;;10.97;5.60;;;-6.20;99.90;;;;;;5016990;28;20508;-80
2021/12/11 07:31:19;;;;;;;30.20;6.90;;;-6.30;99.90;;;;;;5016570;28;20473;-76
2021/12/11 07:33:45;;;;;;;13.50;4.47;;;-4.40;99.90;;;;;;5017371;28;20407;-74
2021/12/11 07:36:12;;;;;;;19.40;5.07;;;-4.30;99.90;;;;;;5016384;28;20443;-78
2021/12/11 07:38:38;;;;;;;17.87;5.00;;;-4.20;99.90;;;;;;5017677;28;20438;-74
2021/12/11 07:41:08;;;;;;;15.07;5.37;;;-5.40;99.90;;;;;;5033081;28;20399;-76
2021/12/11 07:43:39;;;;;;;14.47;5.43;;;-5.00;99.90;;;;;;5018362;28;20457;-75
2021/12/11 07:46:07;;;;;;;16.63;5.47;;;-5.70;99.90;;;;;;5017492;28;20406;-77
2021/12/11 07:48:33;;;;;;;21.33;7.67;;;-3.10;99.90;;;;;;5017175;28;20442;-82
2021/12/11 07:51:00;;;;;;;13.73;4.63;;;-3.60;99.90;;;;;;5016858;28;20411;-76
2021/12/11 07:53:26;;;;;;;15.33;3.80;;;-3.60;99.90;;;;;;5017628;28;20488;-78
2021/12/11 07:55:54;;;;;;;16.10;5.00;;;-6.10;99.90;;;;;;5020865;28;20446;-81
2021/12/11 07:58:24;;;;;;;13.07;4.53;;;-3.90;99.90;;;;;;5021200;28;20174;-79
2021/12/11 08:00:55;;;;;;;23.60;7.67;;;-5.00;99.90;;;;;;5016506;28;20454;-75
2021/12/11 08:03:21;;;;;;;18.63;7.40;;;-5.70;99.90;;;;;;5019186;28;20492;-78
2021/12/11 08:05:50;;;;;;;16.00;4.73;;;-5.60;99.90;;;;;;5033882;28;20414;-77
2021/12/11 08:08:17;;;;;;;17.03;5.33;;;-4.40;99.90;;;;;;5017566;28;20518;-75
2021/12/11 08:10:46;;;;;;;23.50;6.03;;;-5.70;99.90;;;;;;5019815;28;20403;-75
2021/12/11 08:13:12;;;;;;;12.47;4.93;;;-3.80;99.90;;;;;;5018249;28;20398;-76
2021/12/11 08:15:39;;;;;;;18.00;4.90;;;-4.00;99.90;;;;;;5022153;28;20443;-77
2021/12/11 08:18:08;;;;;;;21.70;5.30;;;-5.20;99.90;;;;;;5015957;28;20482;-79
2021/12/11 08:20:39;;;;;;;9.97;4.73;;;-5.30;99.90;;;;;;5017237;28;20419;-77
2021/12/11 08:23:06;;;;;;;18.13;5.60;;;-5.30;99.90;;;;;;5016471;28;20683;-77
2021/12/11 08:25:34;;;;;;;10.00;4.80;;;-3.10;99.90;;;;;;5015698;28;20411;-77
2021/12/11 08:28:01;;;;;;;11.47;4.43;;;-5.10;99.90;;;;;;5016906;28;20485;-79
2021/12/11 08:30:30;;;;;;;11.83;5.63;;;-5.50;99.90;;;;;;5021421;28;20423;-79
2021/12/11 08:32:56;;;;;;;13.00;5.43;;;-5.70;99.90;;;;;;5016348;28;20403;-78
2021/12/11 08:35:22;;;;;;;16.20;5.80;;;-4.30;99.90;;;;;;5015263;28;20453;-78
2021/12/11 08:37:50;;;;;;;12.40;5.33;;;-3.70;99.90;;;;;;5015325;28;20718;-77
2021/12/11 08:40:22;;;;;;;12.40;5.77;;;-6.10;99.90;;;;;;5015552;28;20303;-74
2021/12/11 08:42:49;;;;;;;21.07;6.20;;;-4.30;99.90;;;;;;5016362;28;20421;-72
2021/12/11 08:45:23;;;;;;;11.90;4.90;;;-5.90;99.90;;;;;;5016801;28;20391;-80
2021/12/11 08:47:53;;;;;;;12.30;5.83;;;-4.90;99.90;;;;;;5016457;28;20486;-82
2021/12/11 08:50:22;;;;;;;18.47;6.93;;;-5.80;99.90;;;;;;5016734;28;20503;-80
2021/12/11 08:52:51;;;;;;;12.57;5.00;;;-4.60;99.90;;;;;;5016967;28;20482;-84
2021/12/11 08:55:33;;;;;;;21.47;5.37;;;-3.80;99.90;;;;;;5015236;28;20455;-79
2021/12/11 08:58:01;;;;;;;13.57;6.37;;;-5.80;99.90;;;;;;5015066;28;20418;-82
2021/12/11 09:00:41;;;;;;;14.07;5.87;;;-5.70;99.90;;;;;;5034645;28;20436;-83
2021/12/11 09:03:26;;;;;;;9.63;6.60;;;-4.00;99.90;;;;;;5023828;28;20488;-81
2021/12/11 09:06:19;;;;;;;19.53;8.63;;;-3.90;99.90;;;;;;5032031;28;20869;-81
2021/12/11 09:08:55;;;;;;;13.90;8.17;;;-5.70;99.90;;;;;;5016409;28;20903;-79
2021/12/11 09:11:35;;;;;;;12.07;6.20;;;-5.60;99.90;;;;;;5015946;28;20406;-81
2021/12/11 09:14:15;;;;;;;17.30;6.87;;;-4.30;99.90;;;;;;5021115;28;20416;-78
2021/12/11 09:16:55;;;;;;;20.33;6.63;;;-4.10;99.90;;;;;;5015647;28;20823;-79
2021/12/11 09:19:30;;;;;;;18.03;5.93;;;-5.30;99.90;;;;;;5020357;28;20410;-79
2021/12/11 09:22:07;;;;;;;16.93;6.63;;;-5.30;99.90;;;;;;5021009;28;20443;-79
2021/12/11 09:24:41;;;;;;;9.07;7.37;;;-3.90;99.90;;;;;;5027790;28;20479;-80
2021/12/11 09:27:07;;;;;;;26.30;8.37;;;-4.50;99.90;;;;;;5026405;28;20420;-80
2021/12/11 09:29:47;;;;;;;24.20;8.43;;;-4.30;99.90;;;;;;5021721;28;20419;-80
2021/12/11 09:32:16;;;;;;;18.13;6.90;;;-5.30;99.90;;;;;;5022150;28;20178;-81
2021/12/11 09:35:01;;;;;;;15.87;6.03;;;-5.20;99.90;;;;;;5026367;28;20516;-78
2021/12/11 09:37:28;;;;;;;14.77;6.77;;;-5.20;99.90;;;;;;5026497;28;20449;-74
2021/12/11 09:39:58;;;;;;;18.70;7.20;;;-5.30;99.90;;;;;;5025046;28;20410;-80
2021/12/11 09:42:24;;;;;;;24.07;8.90;;;-5.40;99.90;;;;;;5027205;28;20856;-80
2021/12/11 09:45:01;;;;;;;23.67;8.20;;;-5.00;99.90;;;;;;5030240;28;20417;-76
2021/12/11 09:47:34;;;;;;;17.93;8.00;;;-4.80;99.90;;;;;;5035542;28;20178;-77
2021/12/11 09:50:08;;;;;;;12.07;7.47;;;-3.50;99.90;;;;;;5036752;28;20414;-77
2021/12/11 09:52:36;;;;;;;13.87;8.07;;;-4.80;99.90;;;;;;5039080;28;20700;-78
2021/12/11 09:55:10;;;;;;;21.97;7.20;;;-3.20;99.90;;;;;;5037865;28;20456;-77
2021/12/11 09:57:53;;;;;;;23.90;8.40;;;-4.30;99.90;;;;;;5039179;28;20405;-78
2021/12/11 10:00:24;;;;;;;16.03;7.93;;;-4.40;99.90;;;;;;5037802;28;20405;-78
2021/12/11 10:02:51;;;;;;;17.60;7.60;;;-4.30;99.90;;;;;;5038951;28;20411;-77
2021/12/11 10:05:38;;;;;;;18.17;8.17;;;-2.80;99.90;;;;;;5037866;28;20952;-76
2021/12/11 10:09:07;;;;;;;13.13;7.70;;;-4.40;99.90;;;;;;5038321;28;20705;-79
2021/12/11 10:11:15;;;;;;;23.40;10.77;;;-4.20;99.90;;;;;;5043430;28;20420;-72
2021/12/11 10:13:49;;;;;;;15.43;7.43;;;-4.70;99.90;;;;;;5038486;28;20700;-74
2021/12/11 10:16:18;;;;;;;19.33;8.40;;;-4.50;99.90;;;;;;5038910;28;20449;-77
2021/12/11 10:18:45;;;;;;;16.63;7.50;;;-4.50;99.90;;;;;;5037736;28;20429;-79
2021/12/11 10:21:27;;;;;;;15.97;7.73;;;-4.60;99.90;;;;;;5038660;28;20395;-81
2021/12/11 10:23:56;;;;;;;13.50;6.30;;;-4.60;99.90;;;;;;5039895;28;20406;-81
2021/12/11 10:26:25;;;;;;;15.13;7.97;;;-4.20;99.90;;;;;;5037351;28;20406;-79
2021/12/11 10:29:00;;;;;;;19.87;7.87;;;-4.30;99.90;;;;;;5030937;28;20406;-75
2021/12/11 10:31:34;;;;;;;18.33;9.20;;;-1.70;99.90;;;;;;5016600;28;20426;-75
2021/12/11 10:34:05;;;;;;;15.07;7.20;;;-3.80;99.90;;;;;;5016066;28;20422;-76
2021/12/11 10:36:37;;;;;;;15.87;6.93;;;-3.50;99.90;;;;;;5018446;28;20854;-78
2021/12/11 10:39:08;;;;;;;21.47;7.00;;;-3.40;99.90;;;;;;5018107;28;20430;-78
2021/12/11 10:41:34;;;;;;;16.13;9.33;;;-5.00;99.90;;;;;;5016808;28;20545;-79
2021/12/11 10:44:06;;;;;;;16.03;8.87;;;-2.80;99.90;;;;;;5017396;28;20851;-78
2021/12/11 10:46:40;;;;;;;15.27;7.63;;;-3.10;99.90;;;;;;5017237;28;20421;-79
2021/12/11 10:49:10;;;;;;;18.63;7.97;;;-4.70;99.90;;;;;;5017148;28;20422;-78
2021/12/11 10:51:41;;;;;;;12.80;8.07;;;-2.80;99.90;;;;;;5018806;28;20936;-79
2021/12/11 10:54:13;;;;;;;19.37;7.90;;;-4.70;99.90;;;;;;5030947;28;20428;-78
2021/12/11 10:56:39;;;;;;;13.63;7.70;;;-5.20;99.90;;;;;;5029195;28;20415;-77
2021/12/11 10:59:19;;;;;;;18.53;9.20;;;-4.20;99.90;;;;;;5042454;28;20439;-77
2021/12/11 11:01:50;;;;;;;17.60;7.20;;;-5.00;99.90;;;;;;5055758;28;20414;-77
2021/12/11 11:04:23;;;;;;;21.23;7.73;;;-5.90;99.90;;;;;;5037710;28;20438;-77
2021/12/11 11:06:50;;;;;;;15.93;9.97;;;-4.80;99.90;;;;;;5038022;28;20391;-76
2021/12/11 11:09:17;;;;;;;14.47;8.10;;;-3.40;99.90;;;;;;5037710;28;20493;-78
2021/12/11 11:11:45;;;;;;;18.73;8.97;;;-4.90;99.90;;;;;;5035835;28;20452;-77
2021/12/11 11:14:12;;;;;;;21.97;7.70;;;-4.80;99.90;;;;;;5020865;28;20411;-80
2021/12/11 11:16:42;;;;;;;18.20;7.40;;;-3.80;99.90;;;;;;5058227;28;20425;-78
2021/12/11 11:19:09;;;;;;;26.17;8.20;;;-4.40;99.90;;;;;;5057386;28;20398;-80
2021/12/11 11:21:42;;;;;;;14.00;7.10;;;-2.70;99.90;;;;;;5056336;28;20407;-77
2021/12/11 11:24:10;;;;;;;16.67;6.90;;;-2.70;99.90;;;;;;5056911;28;20440;-80
2021/12/11 11:26:40;;;;;;;16.53;7.87;;;-4.70;99.90;;;;;;5056198;28;20402;-78
2021/12/11 11:29:09;;;;;;;13.37;7.43;;;-4.20;99.90;;;;;;5057580;28;20482;-81
2021/12/11 11:31:38;;;;;;;16.50;6.57;;;-4.20;99.90;;;;;;5056458;28;20429;-83
2021/12/11 11:34:07;;;;;;;23.07;7.33;;;-3.30;99.90;;;;;;5056297;28;20497;-81
2021/12/11 11:36:34;;;;;;;17.70;7.90;;;-4.20;99.90;;;;;;5057326;28;20421;-86
2021/12/11 11:39:05;;;;;;;16.07;8.83;;;-4.50;99.90;;;;;;5041106;28;20453;-79
2021/12/11 11:41:36;;;;;;;18.57;7.10;;;-3.50;99.90;;;;;;5023935;28;20416;-80
2021/12/11 11:44:04;;;;;;;15.03;7.70;;;-5.20;99.90;;;;;;5017763;28;20501;-80
2021/12/11 11:46:30;;;;;;;21.67;7.00;;;-5.10;99.90;;;;;;5017656;28;20429;-81
2021/12/11 11:48:59;;;;;;;21.80;8.53;;;-5.00;99.90;;;;;;5016750;28;20860;-79
2021/12/11 11:51:36;;;;;;;15.70;6.90;;;-4.10;99.90;;;;;;5024025;28;20496;-80
2021/12/11 11:54:04;;;;;;;19.03;9.13;;;-4.40;99.90;;;;;;5036562;28;20708;-78
2021/12/11 11:56:36;;;;;;;18.00;6.57;;;-4.30;99.90;;;;;;5036758;28;20483;-80
2021/12/11 11:59:06;;;;;;;16.90;7.27;;;-3.60;99.90;;;;;;5035953;28;20413;-78
2021/12/11 12:01:42;;;;;;;17.13;7.13;;;-5.10;99.90;;;;;;5036449;28;20408;-81
2021/12/11 12:04:15;;;;;;;14.90;6.27;;;-4.80;99.90;;;;;;5035582;28;20419;-78
2021/12/11 12:06:42;;;;;;;10.33;5.90;;;-4.90;99.90;;;;;;5048097;28;20386;-80
2021/12/11 12:09:12;;;;;;;13.30;5.80;;;-4.50;99.90;;;;;;5035494;28;20468;-76
2021/12/11 12:11:39;;;;;;;14.10;7.90;;;-3.10;99.90;;;;;;5036595;28;20390;-78
2021/12/11 12:14:09;;;;;;;8.70;6.33;;;-4.50;99.90;;;;;;5033394;28;20489;-76
2021/12/11 12:16:38;;;;;;;24.37;7.20;;;-4.70;99.90;;;;;;5026959;28;20418;-79
2021/12/11 12:19:05;;;;;;;10.87;6.70;;;-4.10;99.90;;;;;;5054375;28;20404;-81
2021/12/11 12:21:33;;;;;;;10.40;7.33;;;-3.90;99.90;;;;;;5055412;28;20392;-76
2021/12/11 12:23:59;;;;;;;18.43;6.57;;;-3.90;99.90;;;;;;5054727;28;20401;-81
2021/12/11 12:26:31;;;;;;;18.90;9.10;;;-4.20;99.90;;;;;;5039267;28;20798;-80
2021/12/11 12:28:59;;;;;;;14.20;7.10;;;-3.30;99.90;;;;;;5024823;28;20421;-80
2021/12/11 12:31:45;;;;;;;27.43;8.73;;;-5.70;99.90;;;;;;5015265;28;20771;-80
2021/12/11 12:34:14;;;;;;;10.77;6.10;;;-4.20;99.90;;;;;;5015193;28;20935;-81
2021/12/11 12:36:41;;;;;;;14.23;6.50;;;-5.00;99.90;;;;;;5016187;28;20480;-81
2021/12/11 12:39:08;;;;;;;11.73;5.93;;;-3.10;99.90;;;;;;5014964;28;20497;-81
2021/12/11 12:42:04;;;;;;;19.93;8.17;;;-4.70;99.90;;;;;;5016398;28;20397;-81
2021/12/11 12:44:34;;;;;;;16.27;8.43;;;-4.70;99.90;;;;;;5016089;28;20405;-81
2021/12/11 12:47:14;;;;;;;9.20;6.20;;;-4.70;99.90;;;;;;5015190;28;20406;-82
2021/12/11 12:49:45;;;;;;;13.57;6.53;;;-4.30;99.90;;;;;;5014727;28;20424;-81
2021/12/11 12:52:36;;;;;;;24.17;8.50;;;-4.30;99.90;;;;;;5014794;28;20441;-81
2021/12/11 12:55:10;;;;;;;25.17;7.33;;;-5.40;99.90;;;;;;5014827;28;20464;-80
2021/12/11 12:57:40;;;;;;;12.83;5.87;;;-5.00;99.90;;;;;;5016173;28;20445;-81
2021/12/11 13:00:08;;;;;;;21.73;8.23;;;-2.60;99.90;;;;;;5014441;28;20407;-80
2021/12/11 13:02:36;;;;;;;15.83;6.67;;;-4.60;99.90;;;;;;5014290;28;20717;-80
2021/12/11 13:05:34;;;;;;;26.57;9.53;;;-4.10;99.90;;;;;;5016232;28;20398;-81
2021/12/11 13:08:09;;;;;;;12.80;6.40;;;-5.10;99.90;;;;;;5020833;28;20491;-80